createdAt,value
2018-11-26T00:01:50.148Z,26.63
2018-11-26T00:04:18.153Z,25.40
2018-11-26T00:06:45.857Z,24.93
2018-11-26T00:09:13.588Z,26.47
2018-11-26T00:11:41.261Z,25.87
2018-11-26T00:14:08.949Z,27.17
2018-11-26T00:16:36.673Z,26.97
2018-11-26T00:19:04.617Z,23.85
2018-11-26T00:21:32.346Z,25.57
2018-11-26T00:24:00.077Z,26.60
2018-11-26T00:26:27.767Z,25.90
2018-11-26T00:28:55.532Z,28.77
2018-11-26T00:31:23.253Z,28.73
2018-11-26T00:33:51.021Z,28.20
2018-11-26T00:36:18.738Z,29.27
2018-11-26T00:38:46.469Z,29.67
2018-11-26T00:41:14.178Z,29.80
2018-11-26T00:43:41.897Z,29.60
2018-11-26T00:46:09.577Z,30.00
2018-11-26T00:48:37.296Z,27.53
2018-11-26T00:51:05.382Z,26.73
2018-11-26T00:53:33.050Z,28.60
2018-11-26T00:56:00.741Z,28.55
2018-11-26T00:58:28.471Z,28.00
2018-11-26T01:00:57.153Z,29.20
2018-11-26T01:03:24.861Z,30.50
2018-11-26T01:05:52.582Z,28.90
2018-11-26T01:08:20.254Z,28.57
2018-11-26T01:10:47.955Z,28.53
2018-11-26T01:13:15.662Z,29.80
2018-11-26T01:15:43.353Z,29.90
2018-11-26T01:18:11.083Z,29.60
2018-11-26T01:20:38.789Z,31.20
2018-11-26T01:23:06.536Z,31.23
2018-11-26T01:25:34.204Z,32.90
2018-11-26T01:28:01.964Z,31.40
2018-11-26T01:30:29.642Z,32.00
2018-11-26T01:32:57.386Z,30.97
2018-11-26T01:35:25.101Z,32.50
2018-11-26T01:37:52.811Z,32.00
2018-11-26T01:42:47.627Z,32.67
2018-11-26T01:45:15.305Z,32.30
2018-11-26T01:47:43.043Z,30.70
2018-11-26T01:50:10.713Z,31.45
2018-11-26T01:52:38.438Z,30.63
2018-11-26T01:55:06.881Z,29.00
2018-11-26T01:57:34.611Z,30.53
2018-11-26T02:00:02.757Z,29.10
2018-11-26T02:02:30.452Z,30.35
2018-11-26T02:04:58.140Z,31.40
2018-11-26T02:07:25.865Z,29.27
2018-11-26T02:09:55.582Z,31.07
2018-11-26T02:12:23.255Z,30.87
2018-11-26T02:14:50.937Z,32.67
2018-11-26T02:17:18.657Z,28.93
2018-11-26T02:19:46.345Z,30.43
2018-11-26T02:22:14.045Z,29.37
2018-11-26T02:24:41.757Z,28.03
2018-11-26T02:27:09.416Z,29.00
2018-11-26T02:29:37.114Z,27.90
2018-11-26T02:32:04.885Z,28.70
2018-11-26T02:34:32.633Z,28.80
2018-11-26T02:37:00.365Z,29.40
2018-11-26T02:39:28.033Z,28.23
2018-11-26T02:41:55.720Z,27.30
2018-11-26T02:44:23.455Z,29.07
2018-11-26T02:46:51.182Z,27.90
2018-11-26T02:49:18.888Z,26.87
2018-11-26T02:51:46.549Z,26.90
2018-11-26T02:54:14.230Z,26.90
2018-11-26T02:56:41.888Z,28.20
2018-11-26T02:59:09.549Z,26.53
2018-11-26T03:01:37.213Z,25.90
2018-11-26T03:04:05.160Z,25.57
2018-11-26T03:06:32.841Z,26.03
2018-11-26T03:09:00.506Z,26.93
2018-11-26T03:11:28.157Z,26.57
2018-11-26T03:13:55.812Z,26.07
2018-11-26T03:16:23.505Z,26.00
2018-11-26T03:18:51.230Z,26.30
2018-11-26T03:21:18.949Z,27.43
2018-11-26T03:23:46.674Z,26.70
2018-11-26T03:26:14.332Z,26.90
2018-11-26T03:28:42.002Z,26.53
2018-11-26T03:31:09.802Z,25.93
2018-11-26T03:33:37.551Z,25.90
2018-11-26T03:36:06.210Z,26.60
2018-11-26T03:38:43.561Z,25.67
2018-11-26T03:41:11.253Z,25.20
2018-11-26T03:43:38.941Z,24.97
2018-11-26T03:46:06.625Z,25.13
2018-11-26T03:48:34.344Z,23.20
2018-11-26T03:51:03.035Z,24.37
2018-11-26T03:53:30.710Z,23.93
2018-11-26T03:55:58.352Z,24.57
2018-11-26T03:58:26.026Z,24.63
2018-11-26T04:00:53.700Z,24.03
2018-11-26T04:03:21.384Z,24.10
2018-11-26T04:05:49.117Z,24.10
2018-11-26T04:08:16.835Z,25.37
2018-11-26T04:10:44.584Z,25.00
2018-11-26T04:13:12.218Z,24.73
2018-11-26T04:15:39.954Z,23.27
2018-11-26T04:18:07.629Z,24.27
2018-11-26T04:20:35.333Z,25.87
2018-11-26T04:23:03.033Z,23.73
2018-11-26T04:25:30.757Z,25.17
2018-11-26T04:27:58.483Z,23.57
2018-11-26T04:30:26.161Z,25.50
2018-11-26T04:32:53.903Z,24.83
2018-11-26T04:35:21.573Z,24.20
2018-11-26T04:37:49.249Z,24.13
2018-11-26T04:40:17.004Z,23.43
2018-11-26T04:42:44.662Z,25.30
2018-11-26T04:45:12.341Z,25.10
2018-11-26T04:47:40.999Z,24.67
2018-11-26T04:50:09.417Z,24.50
2018-11-26T04:52:37.153Z,24.70
2018-11-26T04:55:04.857Z,24.60
2018-11-26T04:57:32.564Z,22.30
2018-11-26T05:00:00.259Z,24.37
2018-11-26T05:02:28.012Z,23.07
2018-11-26T05:04:55.701Z,24.23
2018-11-26T05:07:23.452Z,23.27
2018-11-26T05:09:51.181Z,25.07
2018-11-26T05:12:18.903Z,25.83
2018-11-26T05:14:46.620Z,24.10
2018-11-26T05:17:14.277Z,22.47
2018-11-26T05:19:41.969Z,23.07
2018-11-26T05:22:09.695Z,24.30
2018-11-26T05:24:37.378Z,23.27
2018-11-26T05:27:05.044Z,24.67
2018-11-26T05:29:32.701Z,24.17
2018-11-26T05:32:00.454Z,22.43
2018-11-26T05:34:28.139Z,24.20
2018-11-26T05:36:55.913Z,22.20
2018-11-26T05:39:23.634Z,24.07
2018-11-26T05:41:51.326Z,23.90
2018-11-26T05:44:19.103Z,21.80
2018-11-26T05:46:46.844Z,24.03
2018-11-26T05:49:14.522Z,23.10
2018-11-26T05:51:42.262Z,23.67
2018-11-26T05:54:09.934Z,23.40
2018-11-26T05:56:37.619Z,23.60
2018-11-26T05:59:05.418Z,24.83
2018-11-26T06:01:33.102Z,24.00
2018-11-26T06:04:00.777Z,22.33
2018-11-26T06:06:28.484Z,22.60
2018-11-26T06:08:56.193Z,22.83
2018-11-26T06:11:23.853Z,23.10
2018-11-26T06:13:51.528Z,25.33
2018-11-26T06:16:19.206Z,25.53
2018-11-26T06:18:46.894Z,26.37
2018-11-26T06:21:14.645Z,25.07
2018-11-26T06:23:42.390Z,26.33
2018-11-26T06:26:10.065Z,27.20
2018-11-26T06:28:37.922Z,27.10
2018-11-26T06:31:05.817Z,25.27
2018-11-26T06:33:33.561Z,26.33
2018-11-26T06:36:01.325Z,25.93
2018-11-26T06:38:29.053Z,26.93
2018-11-26T06:40:56.742Z,28.00
2018-11-26T06:43:24.425Z,27.73
2018-11-26T06:45:52.143Z,29.07
2018-11-26T06:48:19.830Z,29.00
2018-11-26T06:50:47.498Z,28.50
2018-11-26T06:53:15.208Z,29.30
2018-11-26T06:55:44.160Z,29.10
2018-11-26T06:58:11.889Z,30.20
2018-11-26T07:00:39.578Z,28.57
2018-11-26T07:03:07.219Z,29.90
2018-11-26T07:05:40.509Z,30.43
2018-11-26T07:08:08.185Z,28.23
2018-11-26T07:10:35.893Z,28.27
2018-11-26T07:13:03.608Z,31.47
2018-11-26T07:15:31.281Z,31.40
2018-11-26T07:17:59.019Z,31.13
2018-11-26T07:20:26.686Z,30.80
2018-11-26T07:22:55.403Z,29.33
2018-11-26T07:25:23.138Z,29.47
2018-11-26T07:27:52.379Z,30.20
2018-11-26T07:30:22.751Z,29.40
2018-11-26T07:32:50.551Z,28.57
2018-11-26T07:35:18.331Z,29.20
2018-11-26T07:37:46.073Z,29.50
2018-11-26T07:40:14.414Z,27.47
2018-11-26T07:42:42.928Z,29.07
2018-11-26T07:45:11.331Z,29.90
2018-11-26T07:47:39.146Z,29.43
2018-11-26T07:50:07.998Z,30.80
2018-11-26T07:52:35.772Z,29.20
2018-11-26T07:55:03.533Z,29.40
2018-11-26T07:57:31.259Z,29.43
2018-11-26T07:59:58.962Z,27.60
2018-11-26T08:02:27.728Z,27.70
2018-11-26T08:04:55.474Z,29.87
2018-11-26T08:07:23.149Z,29.70
2018-11-26T08:09:50.885Z,30.03
2018-11-26T08:12:18.561Z,29.30
2018-11-26T08:14:46.233Z,27.60
2018-11-26T08:17:13.970Z,28.43
2018-11-26T08:19:41.645Z,28.00
2018-11-26T08:22:09.325Z,28.30
2018-11-26T08:24:37.057Z,27.17
2018-11-26T08:27:05.053Z,28.27
2018-11-26T08:29:32.793Z,27.60
2018-11-26T08:32:00.471Z,27.57
2018-11-26T08:34:28.243Z,26.70
2018-11-26T08:37:02.421Z,27.37
2018-11-26T08:39:36.020Z,26.60
2018-11-26T08:42:08.282Z,26.60
2018-11-26T08:44:45.190Z,25.87
2018-11-26T08:47:23.033Z,25.27
2018-11-26T08:49:51.117Z,24.87
2018-11-26T08:52:19.281Z,25.07
2018-11-26T08:54:47.009Z,25.00
2018-11-26T08:57:15.709Z,23.87
2018-11-26T08:59:43.433Z,23.07
2018-11-26T09:02:11.192Z,26.13
2018-11-26T09:04:44.558Z,22.90
2018-11-26T09:07:12.293Z,22.47
2018-11-26T09:09:40.018Z,22.60
2018-11-26T09:12:07.737Z,22.00
2018-11-26T09:14:35.458Z,21.50
2018-11-26T09:17:03.132Z,21.87
2018-11-26T09:19:30.806Z,21.27
2018-11-26T09:21:58.542Z,20.23
2018-11-26T09:24:26.212Z,21.40
2018-11-26T09:26:53.949Z,22.40
2018-11-26T09:29:21.657Z,20.80
2018-11-26T09:31:49.338Z,21.57
2018-11-26T09:34:17.065Z,21.20
2018-11-26T09:36:44.733Z,20.50
2018-11-26T09:39:12.433Z,21.07
2018-11-26T09:41:40.385Z,19.90
2018-11-26T09:44:08.117Z,20.73
2018-11-26T09:46:36.034Z,21.17
2018-11-26T09:49:03.761Z,20.93
2018-11-26T09:51:31.441Z,19.53
2018-11-26T09:53:59.175Z,19.97
2018-11-26T09:56:26.853Z,21.27
2018-11-26T09:58:54.513Z,20.60
2018-11-26T10:01:22.178Z,22.30
2018-11-26T10:03:49.858Z,21.30
2018-11-26T10:06:17.653Z,20.60
2018-11-26T10:08:45.369Z,22.77
2018-11-26T10:11:13.026Z,20.57
2018-11-26T10:13:40.680Z,20.13
2018-11-26T10:16:08.353Z,18.47
2018-11-26T10:18:36.022Z,20.47
2018-11-26T10:21:03.761Z,20.47
2018-11-26T10:23:31.434Z,20.00
2018-11-26T10:25:59.139Z,20.40
2018-11-26T10:28:26.852Z,19.60
2018-11-26T10:30:54.512Z,20.10
2018-11-26T10:33:22.182Z,18.90
2018-11-26T10:35:49.862Z,17.97
2018-11-26T10:38:18.549Z,17.70
2018-11-26T10:40:46.294Z,18.17
2018-11-26T10:43:13.969Z,17.83
2018-11-26T10:45:41.715Z,18.77
2018-11-26T10:48:09.419Z,18.70
2018-11-26T10:50:37.134Z,19.00
2018-11-26T10:53:04.810Z,18.50
2018-11-26T10:55:32.973Z,19.60
2018-11-26T10:58:00.700Z,17.17
2018-11-26T11:00:33.977Z,17.60
2018-11-26T11:03:01.726Z,18.47
2018-11-26T11:05:29.401Z,18.40
2018-11-26T11:07:57.147Z,18.60
2018-11-26T11:10:25.437Z,17.10
2018-11-26T11:12:53.168Z,17.77
2018-11-26T11:15:20.873Z,19.23
2018-11-26T11:17:48.594Z,19.10
2018-11-26T11:20:18.891Z,19.73
2018-11-26T11:22:46.573Z,19.50
2018-11-26T11:25:14.698Z,19.43
2018-11-26T11:27:44.460Z,17.70
2018-11-26T11:30:12.765Z,18.47
2018-11-26T11:32:40.534Z,19.90
2018-11-26T11:35:08.710Z,18.17
2018-11-26T11:37:36.455Z,17.07
2018-11-26T11:40:06.359Z,19.30
2018-11-26T11:42:34.031Z,17.43
2018-11-26T11:45:01.703Z,19.17
2018-11-26T11:47:29.359Z,18.83
2018-11-26T11:49:57.048Z,19.03
2018-11-26T11:52:24.795Z,19.07
2018-11-26T11:54:52.536Z,20.73
2018-11-26T11:57:20.235Z,19.70
2018-11-26T11:59:47.979Z,19.50
2018-11-26T12:02:16.107Z,18.67
2018-11-26T12:04:43.387Z,19.97
2018-11-26T12:07:11.080Z,20.03
2018-11-26T12:09:38.816Z,21.53
2018-11-26T12:12:06.495Z,19.57
2018-11-26T12:14:34.240Z,21.43
2018-11-26T12:17:01.951Z,19.80
2018-11-26T12:19:29.664Z,19.60
2018-11-26T12:21:57.342Z,20.67
2018-11-26T12:24:25.006Z,19.90
2018-11-26T12:26:52.750Z,21.03
2018-11-26T12:29:20.450Z,20.03
2018-11-26T12:31:48.163Z,19.20
2018-11-26T12:34:15.870Z,18.80
2018-11-26T12:36:43.627Z,18.60
2018-11-26T12:39:11.383Z,20.23
2018-11-26T12:41:39.063Z,19.90
2018-11-26T12:44:06.825Z,19.70
2018-11-26T12:46:34.502Z,19.10
2018-11-26T12:49:02.219Z,19.60
2018-11-26T12:51:29.898Z,19.07
2018-11-26T12:53:57.586Z,19.03
2018-11-26T12:56:25.299Z,21.90
2018-11-26T12:58:52.994Z,20.03
2018-11-26T13:01:21.659Z,19.70
2018-11-26T13:03:49.322Z,17.47
2018-11-26T13:06:17.021Z,18.90
2018-11-26T13:08:44.734Z,17.27
2018-11-26T13:11:12.431Z,19.40
2018-11-26T13:13:40.186Z,17.47
2018-11-26T13:16:07.851Z,17.60
2018-11-26T13:18:35.514Z,17.60
2018-11-26T13:21:03.267Z,19.40
2018-11-26T13:23:30.930Z,18.07
2018-11-26T13:25:58.615Z,19.57
2018-11-26T13:28:26.392Z,19.37
2018-11-26T13:30:54.035Z,18.13
2018-11-26T13:33:21.774Z,18.93
2018-11-26T13:35:49.472Z,19.60
2018-11-26T13:38:17.212Z,20.17
2018-11-26T13:40:44.893Z,18.43
2018-11-26T13:43:14.114Z,20.33
2018-11-26T13:45:42.691Z,19.37
2018-11-26T13:48:10.963Z,19.13
2018-11-26T13:50:40.536Z,19.70
2018-11-26T13:53:08.260Z,17.73
2018-11-26T13:55:35.988Z,20.07
2018-11-26T13:58:03.780Z,19.40
2018-11-26T14:00:31.503Z,20.37
2018-11-26T14:02:59.188Z,21.10
2018-11-26T14:05:27.024Z,19.97
2018-11-26T14:07:56.760Z,20.00
2018-11-26T14:10:26.219Z,19.20
2018-11-26T14:13:06.707Z,20.27
2018-11-26T14:15:34.405Z,20.37
2018-11-26T14:18:02.131Z,19.90
2018-11-26T14:20:29.825Z,20.57
2018-11-26T14:22:57.515Z,20.00
2018-11-26T14:25:25.205Z,20.60
2018-11-26T14:27:52.867Z,20.33
2018-11-26T14:30:22.550Z,21.27
2018-11-26T14:32:51.343Z,20.37
2018-11-26T14:35:19.088Z,20.23
2018-11-26T14:37:50.431Z,20.97
2018-11-26T14:40:19.841Z,20.90
2018-11-26T14:42:47.666Z,21.27
2018-11-26T14:45:15.268Z,22.60
2018-11-26T14:47:43.372Z,21.20
2018-11-26T14:50:12.353Z,21.80
2018-11-26T14:52:40.284Z,21.93
2018-11-26T14:55:10.116Z,20.40
2018-11-26T14:57:37.852Z,20.20
2018-11-26T15:00:08.851Z,21.03
2018-11-26T15:02:36.572Z,22.10
2018-11-26T15:05:04.556Z,22.70
2018-11-26T15:07:32.295Z,22.50
2018-11-26T15:10:00.069Z,21.90
2018-11-26T15:12:27.789Z,21.20
2018-11-26T15:14:55.557Z,21.90
2018-11-26T15:17:23.281Z,21.13
2018-11-26T15:19:50.993Z,21.60
2018-11-26T15:22:18.759Z,21.67
2018-11-26T15:24:46.476Z,21.33
2018-11-26T15:27:14.200Z,20.90
2018-11-26T15:29:41.935Z,20.70
2018-11-26T15:32:09.661Z,21.87
2018-11-26T15:34:37.373Z,23.10
2018-11-26T15:37:05.167Z,20.83
2018-11-26T15:39:32.916Z,20.23
2018-11-26T15:42:00.631Z,21.40
2018-11-26T15:44:28.361Z,21.73
2018-11-26T15:46:56.131Z,20.53
2018-11-26T15:49:23.872Z,20.80
2018-11-26T15:51:51.637Z,20.50
2018-11-26T15:54:19.449Z,20.43
2018-11-26T15:56:47.159Z,19.70
2018-11-26T15:59:14.879Z,18.27
2018-11-26T16:01:42.627Z,18.73
2018-11-26T16:04:10.352Z,18.93
2018-11-26T16:06:38.145Z,19.17
2018-11-26T16:09:08.091Z,18.57
2018-11-26T16:11:35.815Z,19.77
2018-11-26T16:14:03.571Z,19.23
2018-11-26T16:16:31.328Z,18.83
2018-11-26T16:18:59.819Z,20.07
2018-11-26T16:21:27.579Z,20.50
2018-11-26T16:23:55.307Z,18.60
2018-11-26T16:26:23.035Z,21.07
2018-11-26T16:28:50.766Z,19.93
2018-11-26T16:31:18.525Z,19.80
2018-11-26T16:33:46.331Z,18.60
2018-11-26T16:36:14.019Z,18.40
2018-11-26T16:38:41.720Z,18.90
2018-11-26T16:41:09.447Z,17.30
2018-11-26T16:43:37.148Z,18.43
2018-11-26T16:46:05.352Z,17.77
2018-11-26T16:48:33.067Z,18.00
2018-11-26T16:51:00.735Z,18.30
2018-11-26T16:53:29.402Z,18.43
2018-11-26T16:55:57.115Z,17.63
2018-11-26T16:58:24.856Z,18.00
2018-11-26T17:00:52.642Z,17.53
2018-11-26T17:03:20.347Z,17.27
2018-11-26T17:05:48.049Z,18.17
2018-11-26T17:08:15.987Z,16.70
2018-11-26T17:10:43.715Z,16.70
2018-11-26T17:13:12.054Z,16.40
2018-11-26T17:15:39.800Z,16.00
2018-11-26T17:18:07.515Z,16.20
2018-11-26T17:20:35.800Z,16.67
2018-11-26T17:23:03.498Z,16.53
2018-11-26T17:25:31.240Z,15.67
2018-11-26T17:27:58.915Z,16.50
2018-11-26T17:30:27.606Z,17.80
2018-11-26T17:32:58.854Z,17.17
2018-11-26T17:35:26.672Z,16.43
2018-11-26T17:37:55.405Z,16.33
2018-11-26T17:40:23.572Z,18.20
2018-11-26T17:42:51.401Z,15.60
2018-11-26T17:45:19.783Z,18.27
2018-11-26T17:47:48.951Z,17.70
2018-11-26T17:50:18.492Z,18.20
2018-11-26T17:52:46.188Z,16.80
2018-11-26T17:55:13.856Z,15.80
2018-11-26T17:57:41.588Z,16.30
2018-11-26T18:00:10.958Z,15.60
2018-11-26T18:02:38.679Z,16.07
2018-11-26T18:05:10.547Z,16.17
2018-11-26T18:07:38.336Z,15.90
2018-11-26T18:10:08.033Z,16.20
2018-11-26T18:12:35.806Z,15.50
2018-11-26T18:15:04.005Z,16.90
2018-11-26T18:17:31.752Z,16.43
2018-11-26T18:19:59.504Z,16.20
2018-11-26T18:22:27.260Z,16.20
2018-11-26T18:24:55.959Z,16.03
2018-11-26T18:27:23.694Z,16.60
2018-11-26T18:29:51.386Z,15.57
2018-11-26T18:32:19.098Z,15.10
2018-11-26T18:34:46.787Z,14.70
2018-11-26T18:37:14.511Z,14.00
2018-11-26T18:39:42.236Z,13.77
2018-11-26T18:42:09.992Z,14.20
2018-11-26T18:44:37.764Z,12.93
2018-11-26T18:47:05.559Z,13.73
2018-11-26T18:49:33.324Z,13.57
2018-11-26T18:52:01.035Z,14.10
2018-11-26T18:54:28.760Z,14.07
2018-11-26T18:56:56.492Z,13.07
2018-11-26T18:59:24.216Z,12.87
2018-11-26T19:01:51.917Z,12.73
2018-11-26T19:04:19.688Z,12.50
2018-11-26T19:06:47.423Z,13.83
2018-11-26T19:09:15.122Z,12.60
2018-11-26T19:11:42.834Z,12.07
2018-11-26T19:14:12.486Z,13.03
2018-11-26T19:16:42.413Z,13.00
2018-11-26T19:19:10.158Z,14.33
2018-11-26T19:21:37.966Z,13.40
2018-11-26T19:24:05.688Z,13.70
2018-11-26T19:26:33.500Z,13.10
2018-11-26T19:29:01.235Z,12.70
2018-11-26T19:31:28.997Z,13.33
2018-11-26T19:33:56.736Z,14.30
2018-11-26T19:36:24.532Z,14.10
2018-11-26T19:38:52.282Z,12.90
2018-11-26T19:41:20.042Z,13.77
2018-11-26T19:43:47.817Z,14.07
2018-11-26T19:46:15.566Z,13.77
2018-11-26T19:48:43.389Z,14.30
2018-11-26T19:51:12.104Z,13.80
2018-11-26T19:53:39.882Z,14.23
2018-11-26T19:56:07.731Z,13.67
2018-11-26T19:58:35.388Z,14.30
2018-11-26T20:01:03.090Z,13.70
2018-11-26T20:03:32.912Z,13.33
2018-11-26T20:06:06.582Z,14.77
2018-11-26T20:08:34.303Z,14.73
2018-11-26T20:11:02.025Z,14.40
2018-11-26T20:13:29.836Z,14.50
2018-11-26T20:15:57.564Z,13.93
2018-11-26T20:18:28.432Z,14.23
2018-11-26T20:20:53.096Z,14.53
2018-11-26T20:23:20.799Z,16.00
2018-11-26T20:25:49.956Z,17.20
2018-11-26T20:28:17.684Z,17.50
2018-11-26T20:30:45.368Z,18.10
2018-11-26T20:33:13.121Z,17.83
2018-11-26T20:35:40.892Z,16.37
2018-11-26T20:38:09.404Z,16.03
2018-11-26T20:40:37.111Z,16.37
2018-11-26T20:43:05.829Z,16.87
2018-11-26T20:45:33.571Z,17.77
2018-11-26T20:48:01.368Z,16.83
2018-11-26T20:50:29.171Z,16.20
2018-11-26T20:52:56.912Z,16.70
2018-11-26T20:55:25.132Z,17.20
2018-11-26T20:57:53.479Z,16.40
2018-11-26T21:00:21.871Z,18.00
2018-11-26T21:02:50.280Z,18.30
2018-11-26T21:05:18.036Z,18.33
2018-11-26T21:07:45.698Z,18.10
2018-11-26T21:10:13.779Z,18.67
2018-11-26T21:12:41.552Z,18.10
2018-11-26T21:15:10.991Z,18.50
2018-11-26T21:17:38.761Z,18.47
2018-11-26T21:20:10.432Z,19.00
2018-11-26T21:22:38.152Z,17.80
2018-11-26T21:25:07.567Z,19.00
2018-11-26T21:27:36.353Z,18.30
2018-11-26T21:30:04.407Z,18.20
2018-11-26T21:32:32.152Z,20.37
2018-11-26T21:34:59.911Z,18.80
2018-11-26T21:37:27.836Z,19.63
2018-11-26T21:39:55.564Z,19.33
2018-11-26T21:42:23.353Z,19.27
2018-11-26T21:44:51.163Z,19.70
2018-11-26T21:47:18.861Z,19.37
2018-11-26T21:49:46.616Z,19.93
2018-11-26T21:52:14.388Z,19.10
2018-11-26T21:54:42.185Z,19.50
2018-11-26T21:57:10.951Z,19.90
2018-11-26T21:59:38.724Z,18.90
2018-11-26T22:02:06.512Z,18.30
2018-11-26T22:04:34.252Z,18.60
2018-11-26T22:07:01.981Z,18.80
2018-11-26T22:09:29.793Z,20.27
2018-11-26T22:11:57.523Z,17.87
2018-11-26T22:14:25.255Z,19.80
2018-11-26T22:16:52.923Z,19.43
2018-11-26T22:19:20.587Z,18.47
2018-11-26T22:21:48.369Z,19.77
2018-11-26T22:24:16.136Z,18.70
2018-11-26T22:26:43.930Z,18.83
2018-11-26T22:29:11.709Z,19.23
2018-11-26T22:31:39.403Z,18.77
2018-11-26T22:34:07.063Z,18.30
2018-11-26T22:36:34.762Z,17.23
2018-11-26T22:39:02.514Z,17.57
2018-11-26T22:41:30.286Z,18.33
2018-11-26T22:43:58.960Z,18.33
2018-11-26T22:46:26.715Z,19.30
2018-11-26T22:48:54.428Z,19.00
2018-11-26T22:53:49.144Z,17.93
2018-11-26T22:56:16.846Z,18.20
2018-11-26T23:01:11.578Z,17.60
2018-11-26T23:03:39.323Z,17.85
2018-11-26T23:08:34.066Z,17.95
2018-11-26T23:13:28.746Z,17.15
2018-11-26T23:15:56.584Z,19.30
2018-11-26T23:18:24.257Z,17.10
2018-11-26T23:20:51.921Z,17.60
2018-11-26T23:23:19.635Z,18.07
2018-11-26T23:25:47.373Z,17.60
2018-11-26T23:28:15.107Z,18.45
2018-11-26T23:30:43.908Z,18.95
2018-11-26T23:33:11.563Z,18.95
2018-11-26T23:35:39.274Z,17.55
2018-11-26T23:38:06.989Z,18.13
2018-11-26T23:40:35.088Z,17.40
2018-11-26T23:43:02.896Z,17.83
2018-11-26T23:45:31.687Z,18.73
2018-11-26T23:47:59.399Z,18.30
2018-11-26T23:50:27.179Z,16.80
2018-11-26T23:52:54.968Z,17.20
2018-11-26T23:55:23.568Z,19.73
2018-11-26T23:57:51.280Z,18.17
